createdAt,value
2022-08-22T00:00:25.343Z,5.30
2022-08-22T00:05:36.744Z,7.15
2022-08-22T00:10:55.344Z,6.68
2022-08-22T00:16:09.112Z,6.47
2022-08-22T00:21:19.193Z,8.25
2022-08-22T00:26:35.524Z,12.75
2022-08-22T00:31:43.944Z,7.13
2022-08-22T00:36:53.384Z,6.97
2022-08-22T00:42:31.886Z,5.88
2022-08-22T00:48:03.549Z,7.47
2022-08-22T00:53:32.668Z,8.40
2022-08-22T00:59:08.504Z,6.93
2022-08-22T01:05:00.113Z,10.25
2022-08-22T01:10:19.397Z,4.78
2022-08-22T01:15:27.915Z,14.15
2022-08-22T01:21:05.156Z,12.82
2022-08-22T01:26:37.862Z,10.75
2022-08-22T01:32:19.648Z,7.43
2022-08-22T01:38:10.458Z,11.93
2022-08-22T01:43:58.862Z,10.25
2022-08-22T01:48:55.839Z,9.80
2022-08-22T01:54:03.911Z,6.60
2022-08-22T01:59:11.528Z,9.93
2022-08-22T02:04:21.710Z,6.78
2022-08-22T02:09:36.777Z,9.63
2022-08-22T02:14:48.346Z,7.18
2022-08-22T02:19:59.156Z,11.38
2022-08-22T02:25:09.851Z,8.07
2022-08-22T02:30:17.057Z,8.90
2022-08-22T02:35:28.356Z,9.10
2022-08-22T02:40:36.326Z,9.98
2022-08-22T02:45:49.038Z,10.20
2022-08-22T02:56:03.754Z,11.55
2022-08-22T03:01:34.341Z,9.70
2022-08-22T03:06:43.075Z,11.13
2022-08-22T03:11:50.374Z,8.90
2022-08-22T03:17:02.256Z,12.05
2022-08-22T03:22:21.074Z,13.27
2022-08-22T03:27:33.198Z,13.95
2022-08-22T03:32:54.764Z,7.38
2022-08-22T03:38:12.985Z,10.15
2022-08-22T03:43:36.512Z,9.68
2022-08-22T03:49:07.111Z,10.38
2022-08-22T03:54:37.235Z,10.45
2022-08-22T04:00:09.868Z,8.02
2022-08-22T04:05:40.499Z,6.60
2022-08-22T04:11:09.234Z,8.82
2022-08-22T04:16:26.268Z,9.90
2022-08-22T04:21:50.489Z,8.05
2022-08-22T04:26:57.564Z,8.05
2022-08-22T04:32:10.599Z,8.43
2022-08-22T04:37:23.776Z,10.05
2022-08-22T04:42:33.592Z,6.82
2022-08-22T04:47:40.404Z,8.23
2022-08-22T04:53:03.368Z,8.50
2022-08-22T04:58:16.890Z,11.30
2022-08-22T05:03:23.151Z,8.38
2022-08-22T05:08:32.206Z,9.45
2022-08-22T05:13:43.050Z,9.65
2022-08-22T05:18:50.165Z,9.05
2022-08-22T05:23:59.620Z,10.80
2022-08-22T05:29:04.806Z,6.57
2022-08-22T05:34:14.148Z,10.77
2022-08-22T05:39:22.552Z,10.50
2022-08-22T05:44:32.152Z,8.30
2022-08-22T05:49:40.792Z,10.02
2022-08-22T05:54:53.741Z,6.70
2022-08-22T06:00:03.201Z,10.77
2022-08-22T06:05:13.502Z,12.02
2022-08-22T06:10:24.669Z,12.45
2022-08-22T06:15:35.270Z,8.82
2022-08-22T06:20:43.284Z,9.55
2022-08-22T06:25:50.940Z,10.15
2022-08-22T06:30:56.322Z,10.23
2022-08-22T06:36:21.526Z,10.98
2022-08-22T06:41:29.694Z,8.50
2022-08-22T06:46:37.344Z,9.43
2022-08-22T06:51:40.649Z,9.20
2022-08-22T06:56:49.383Z,12.43
2022-08-22T07:01:58.548Z,9.70
2022-08-22T07:07:03.383Z,7.65
2022-08-22T07:12:19.782Z,15.52
2022-08-22T07:17:25.744Z,10.20
2022-08-22T07:22:31.963Z,11.55
2022-08-22T07:27:53.700Z,11.63
2022-08-22T07:33:26.726Z,9.53
2022-08-22T07:38:32.676Z,10.00
2022-08-22T07:43:43.622Z,8.20
2022-08-22T07:49:08.204Z,9.57
2022-08-22T07:54:14.495Z,11.05
2022-08-22T07:59:21.385Z,7.72
2022-08-22T08:04:30.228Z,11.77
2022-08-22T08:09:36.786Z,8.38
2022-08-22T08:14:44.072Z,9.27
2022-08-22T08:19:48.348Z,7.68
2022-08-22T08:24:54.588Z,7.40
2022-08-22T08:30:02.371Z,7.20
2022-08-22T08:35:09.139Z,9.98
2022-08-22T08:40:27.995Z,6.88
2022-08-22T08:45:59.024Z,5.88
2022-08-22T08:51:44.024Z,10.63
2022-08-22T08:56:56.544Z,8.55
2022-08-22T09:02:38.519Z,8.98
2022-08-22T09:08:14.671Z,7.15
2022-08-22T09:13:51.397Z,9.10
2022-08-22T09:19:28.900Z,7.13
2022-08-22T09:24:53.291Z,5.35
2022-08-22T09:30:04.740Z,2.97
2022-08-22T09:35:15.456Z,5.63
2022-08-22T09:40:29.189Z,3.37
2022-08-22T09:45:54.052Z,3.50
2022-08-22T09:51:28.690Z,7.13
2022-08-22T09:56:39.519Z,4.15
2022-08-22T10:01:52.631Z,5.20
2022-08-22T10:12:12.446Z,3.83
2022-08-22T10:17:21.734Z,4.07
2022-08-22T10:22:36.168Z,3.38
2022-08-22T10:27:51.672Z,4.50
2022-08-22T10:33:03.256Z,5.40
2022-08-22T10:38:14.299Z,3.92
2022-08-22T10:43:28.946Z,2.90
2022-08-22T10:48:38.345Z,4.18
2022-08-22T10:53:55.102Z,4.18
2022-08-22T10:59:10.061Z,3.13
2022-08-22T11:04:32.760Z,3.08
2022-08-22T11:09:41.680Z,4.95
2022-08-22T11:15:04.218Z,2.83
2022-08-22T11:20:19.639Z,2.30
2022-08-22T11:25:38.678Z,2.15
2022-08-22T11:30:53.803Z,4.07
2022-08-22T11:36:06.469Z,4.55
2022-08-22T11:41:13.710Z,2.75
2022-08-22T11:46:31.132Z,3.08
2022-08-22T11:51:57.530Z,5.28
2022-08-22T11:57:07.957Z,6.10
2022-08-22T12:02:19.571Z,2.35
2022-08-22T12:07:29.311Z,4.40
2022-08-22T12:12:42.160Z,5.13
2022-08-22T12:18:27.892Z,3.50
2022-08-22T12:24:11.332Z,2.72
2022-08-22T12:29:33.796Z,2.33
2022-08-22T12:34:47.931Z,2.70
2022-08-22T12:40:09.714Z,3.33
2022-08-22T12:45:27.289Z,3.47
2022-08-22T12:50:43.079Z,3.20
2022-08-22T12:55:59.337Z,3.17
2022-08-22T13:01:06.684Z,3.50
2022-08-22T13:06:48.817Z,1.83
2022-08-22T13:11:58.105Z,3.17
2022-08-22T13:17:13.501Z,2.25
2022-08-22T13:22:31.874Z,6.55
2022-08-22T13:27:37.744Z,4.65
2022-08-22T13:32:57.532Z,3.38
2022-08-22T13:38:12.238Z,2.95
2022-08-22T13:43:22.472Z,4.35
2022-08-22T13:48:27.985Z,1.67
2022-08-22T13:53:42.318Z,3.80
2022-08-22T13:58:50.988Z,4.13
2022-08-22T14:03:59.968Z,1.95
2022-08-22T14:09:29.449Z,2.67
2022-08-22T14:14:38.808Z,2.25
2022-08-22T14:19:53.123Z,2.95
2022-08-22T14:25:07.638Z,3.77
2022-08-22T14:30:16.186Z,1.95
2022-08-22T14:35:34.858Z,1.63
2022-08-22T14:40:42.619Z,4.43
2022-08-22T14:45:55.407Z,5.93
2022-08-22T14:51:01.376Z,3.05
2022-08-22T14:56:11.153Z,4.70
2022-08-22T15:01:17.884Z,3.05
2022-08-22T15:06:35.151Z,6.15
2022-08-22T15:11:42.401Z,3.30
2022-08-22T15:16:53.564Z,3.42
2022-08-22T15:22:13.653Z,2.63
2022-08-22T15:27:21.169Z,2.28
2022-08-22T15:32:30.165Z,4.05
2022-08-22T15:37:34.967Z,3.20
2022-08-22T15:42:43.390Z,4.88
2022-08-22T15:47:52.090Z,2.38
2022-08-22T15:53:11.759Z,4.25
2022-08-22T15:58:24.880Z,4.93
2022-08-22T16:03:30.921Z,2.63
2022-08-22T16:08:49.493Z,3.80
2022-08-22T16:14:21.294Z,3.42
2022-08-22T16:24:56.161Z,7.00
2022-08-22T16:30:07.759Z,5.13
2022-08-22T16:35:10.805Z,1.73
2022-08-22T16:40:20.944Z,2.45
2022-08-22T16:45:35.925Z,2.42
2022-08-22T16:50:40.920Z,4.28
2022-08-22T16:56:18.716Z,6.15
2022-08-22T17:01:34.900Z,6.22
2022-08-22T17:07:03.819Z,2.88
2022-08-22T17:12:17.882Z,2.45
2022-08-22T17:17:35.271Z,4.82
2022-08-22T17:22:48.030Z,5.32
2022-08-22T17:28:01.457Z,4.35
2022-08-22T17:33:15.844Z,2.80
2022-08-22T17:38:35.447Z,3.63
2022-08-22T17:43:50.396Z,3.35
2022-08-22T17:49:00.908Z,5.47
2022-08-22T17:54:14.357Z,3.15
2022-08-22T17:59:21.810Z,5.63
2022-08-22T18:04:33.905Z,2.70
2022-08-22T18:09:40.337Z,4.53
2022-08-22T18:14:50.851Z,4.50
2022-08-22T18:20:05.255Z,5.22
2022-08-22T18:25:27.565Z,4.30
2022-08-22T18:30:36.727Z,4.05
2022-08-22T18:35:53.665Z,4.82
2022-08-22T18:41:08.493Z,4.85
2022-08-22T18:46:33.354Z,4.32
2022-08-22T18:51:38.854Z,6.53
2022-08-22T18:56:50.739Z,5.68
2022-08-22T19:02:05.449Z,3.30
2022-08-22T19:07:34.217Z,5.93
2022-08-22T19:12:54.663Z,3.83
2022-08-22T19:18:26.473Z,3.38
2022-08-22T19:23:49.167Z,5.60
2022-08-22T19:28:53.211Z,5.57
2022-08-22T19:34:25.765Z,5.15
2022-08-22T19:45:03.537Z,6.93
2022-08-22T19:50:13.076Z,4.03
2022-08-22T19:55:22.991Z,4.03
2022-08-22T20:00:48.358Z,9.30
2022-08-22T20:06:04.715Z,3.85
2022-08-22T20:11:23.807Z,3.13
2022-08-22T20:17:00.263Z,5.75
2022-08-22T20:22:06.685Z,5.95
2022-08-22T20:27:15.765Z,3.10
2022-08-22T20:32:23.061Z,5.10
2022-08-22T20:37:56.212Z,3.75
2022-08-22T20:43:00.158Z,6.22
2022-08-22T20:48:08.808Z,5.53
2022-08-22T20:53:21.837Z,3.15
2022-08-22T20:58:27.404Z,7.80
2022-08-22T21:03:40.771Z,4.05
2022-08-22T21:08:45.971Z,3.78
2022-08-22T21:13:50.396Z,5.65
2022-08-22T21:18:54.757Z,3.45
2022-08-22T21:24:01.904Z,4.50
2022-08-22T21:29:07.742Z,7.07
2022-08-22T21:34:15.120Z,5.93
2022-08-22T21:39:22.641Z,5.60
2022-08-22T21:44:29.125Z,4.47
2022-08-22T21:49:31.903Z,5.60
2022-08-22T21:54:41.571Z,5.10
2022-08-22T21:59:51.733Z,6.35
2022-08-22T22:05:03.772Z,4.70
2022-08-22T22:10:14.837Z,7.28
2022-08-22T22:15:20.832Z,4.45
2022-08-22T22:20:26.135Z,5.85
2022-08-22T22:25:41.356Z,4.45
2022-08-22T22:30:50.293Z,5.47
2022-08-22T22:35:55.371Z,5.93
2022-08-22T22:40:59.558Z,4.55
2022-08-22T22:46:03.754Z,5.15
2022-08-22T22:51:09.609Z,5.57
2022-08-22T22:56:16.231Z,4.60
2022-08-22T23:01:22.455Z,6.95
2022-08-22T23:06:28.572Z,6.45
2022-08-22T23:11:32.726Z,4.95
2022-08-22T23:16:37.457Z,6.35
2022-08-22T23:21:41.560Z,5.85
2022-08-22T23:26:45.880Z,7.10
2022-08-22T23:31:52.701Z,5.93
2022-08-22T23:36:58.048Z,7.53
2022-08-22T23:42:02.960Z,5.97
2022-08-22T23:47:08.069Z,7.20
2022-08-22T23:52:13.445Z,3.35
2022-08-22T23:57:17.638Z,3.47
